createdAt,value
2023-01-09T00:00:10.943Z,3.70
2023-01-09T00:01:17.570Z,3.70
2023-01-09T00:02:20.445Z,3.60
2023-01-09T00:03:25.755Z,3.60
2023-01-09T00:04:30.165Z,3.60
2023-01-09T00:05:34.504Z,3.60
2023-01-09T00:06:38.452Z,3.80
2023-01-09T00:07:43.415Z,3.70
2023-01-09T00:08:50.746Z,3.70
2023-01-09T00:09:53.468Z,3.70
2023-01-09T00:10:58.900Z,3.80
2023-01-09T00:12:02.704Z,3.80
2023-01-09T00:13:06.615Z,3.70
2023-01-09T00:14:11.643Z,3.80
2023-01-09T00:15:15.932Z,3.80
2023-01-09T00:16:19.193Z,3.80
2023-01-09T00:17:23.176Z,3.90
2023-01-09T00:18:28.116Z,3.90
2023-01-09T00:19:32.064Z,3.90
2023-01-09T00:20:40.599Z,3.90
2023-01-09T00:21:45.061Z,3.90
2023-01-09T00:22:47.702Z,3.90
2023-01-09T00:23:56.116Z,3.90
2023-01-09T00:24:59.246Z,3.90
2023-01-09T00:26:06.278Z,3.90
2023-01-09T00:27:11.751Z,4.00
2023-01-09T00:28:14.825Z,4.00
2023-01-09T00:29:18.987Z,4.00
2023-01-09T00:30:23.442Z,4.00
2023-01-09T00:31:30.993Z,4.00
2023-01-09T00:32:34.675Z,4.00
2023-01-09T00:33:42.874Z,4.00
2023-01-09T00:34:45.651Z,3.90
2023-01-09T00:35:50.792Z,3.80
2023-01-09T00:36:56.990Z,3.80
2023-01-09T00:38:03.388Z,3.80
2023-01-09T00:39:06.831Z,3.80
2023-01-09T00:40:13.433Z,3.80
2023-01-09T00:41:23.149Z,3.80
2023-01-09T00:42:36.717Z,3.80
2023-01-09T00:43:47.399Z,3.80
2023-01-09T00:44:54.669Z,3.70
2023-01-09T00:45:59.811Z,3.70
2023-01-09T00:47:11.123Z,3.70
2023-01-09T00:48:27.514Z,3.60
2023-01-09T00:49:35.103Z,3.60
2023-01-09T00:50:40.023Z,3.60
2023-01-09T00:51:43.511Z,3.70
2023-01-09T00:52:50.571Z,3.70
2023-01-09T00:53:53.977Z,3.70
2023-01-09T00:54:59.206Z,3.80
2023-01-09T00:56:10.880Z,3.80
2023-01-09T00:57:16.888Z,3.80
2023-01-09T00:58:20.963Z,3.80
2023-01-09T00:59:25.474Z,3.80
2023-01-09T01:00:28.275Z,3.80
2023-01-09T01:01:32.426Z,3.80
2023-01-09T01:02:35.687Z,3.80
2023-01-09T01:03:40.408Z,3.80
2023-01-09T01:05:05.686Z,3.80
2023-01-09T01:06:27.512Z,3.80
2023-01-09T01:07:39.106Z,3.80
2023-01-09T01:08:47.906Z,3.70
2023-01-09T01:09:50.704Z,3.70
2023-01-09T01:10:54.701Z,3.80
2023-01-09T01:11:57.625Z,3.80
2023-01-09T01:13:02.737Z,3.80
2023-01-09T01:14:06.926Z,3.70
2023-01-09T01:15:11.680Z,3.70
2023-01-09T01:16:15.941Z,3.70
2023-01-09T01:17:21.674Z,3.70
2023-01-09T01:18:25.931Z,3.70
2023-01-09T01:19:28.863Z,3.70
2023-01-09T01:20:34.910Z,3.70
2023-01-09T01:21:42.930Z,3.70
2023-01-09T01:22:48.022Z,3.70
2023-01-09T01:23:51.933Z,3.70
2023-01-09T01:24:55.101Z,3.70
2023-01-09T01:25:58.697Z,3.60
2023-01-09T01:27:01.761Z,3.70
2023-01-09T01:28:08.230Z,3.70
2023-01-09T01:29:11.437Z,3.70
2023-01-09T01:30:17.738Z,3.80
2023-01-09T01:31:20.696Z,3.80
2023-01-09T01:32:27.841Z,3.90
2023-01-09T01:33:31.359Z,3.90
2023-01-09T01:34:35.928Z,3.90
2023-01-09T01:35:40.069Z,3.90
2023-01-09T01:36:43.807Z,4.00
2023-01-09T01:37:49.868Z,3.90
2023-01-09T01:38:53.914Z,3.90
2023-01-09T01:39:56.511Z,3.90
2023-01-09T01:41:04.487Z,3.80
2023-01-09T01:42:08.011Z,3.80
2023-01-09T01:43:15.765Z,3.80
2023-01-09T01:45:03.718Z,3.90
2023-01-09T01:46:09.244Z,3.80
2023-01-09T01:47:14.048Z,3.80
2023-01-09T01:48:22.091Z,3.80
2023-01-09T01:49:25.911Z,4.00
2023-01-09T01:50:37.544Z,3.90
2023-01-09T01:51:47.824Z,3.90
2023-01-09T01:52:58.177Z,3.80
2023-01-09T01:54:06.989Z,3.90
2023-01-09T01:55:17.506Z,4.00
2023-01-09T01:56:26.454Z,3.80
2023-01-09T01:57:35.394Z,3.80
2023-01-09T01:58:46.924Z,3.80
2023-01-09T01:59:55.116Z,3.90
2023-01-09T02:01:01.471Z,3.90
2023-01-09T02:02:07.626Z,3.90
2023-01-09T02:03:13.437Z,3.90
2023-01-09T02:04:18.082Z,3.90
2023-01-09T02:05:21.391Z,3.90
2023-01-09T02:06:26.244Z,3.90
2023-01-09T02:07:31.785Z,3.90
2023-01-09T02:08:35.716Z,4.00
2023-01-09T02:09:41.846Z,4.00
2023-01-09T02:10:47.062Z,4.00
2023-01-09T02:11:52.541Z,3.90
2023-01-09T02:12:56.322Z,4.00
2023-01-09T02:14:03.284Z,4.00
2023-01-09T02:15:11.357Z,4.00
2023-01-09T02:16:38.455Z,3.90
2023-01-09T02:18:26.148Z,4.10
2023-01-09T02:20:18.031Z,4.00
2023-01-09T02:21:32.653Z,4.00
2023-01-09T02:22:45.347Z,4.00
2023-01-09T02:24:27.515Z,4.00
2023-01-09T02:25:53.968Z,4.10
2023-01-09T02:27:34.152Z,4.10
2023-01-09T02:29:05.624Z,4.20
2023-01-09T02:30:32.862Z,4.10
2023-01-09T02:31:50.297Z,4.10
2023-01-09T02:33:03.332Z,4.10
2023-01-09T02:34:16.609Z,4.10
2023-01-09T02:35:33.320Z,4.00
2023-01-09T02:36:47.774Z,4.00
2023-01-09T02:38:03.181Z,4.10
2023-01-09T02:39:21.622Z,4.10
2023-01-09T02:40:35.602Z,4.10
2023-01-09T02:41:47.835Z,4.20
2023-01-09T02:42:53.586Z,4.20
2023-01-09T02:44:25.991Z,4.20
2023-01-09T02:45:30.099Z,4.20
2023-01-09T02:46:34.723Z,4.20
2023-01-09T02:47:42.522Z,4.20
2023-01-09T02:48:48.195Z,4.20
2023-01-09T02:49:54.607Z,4.20
2023-01-09T02:51:12.172Z,4.30
2023-01-09T02:52:31.632Z,4.30
2023-01-09T02:54:02.686Z,4.30
2023-01-09T02:55:23.014Z,4.20
2023-01-09T02:56:43.337Z,4.30
2023-01-09T02:58:05.675Z,4.30
2023-01-09T02:59:29.062Z,4.30
2023-01-09T03:00:50.836Z,4.30
2023-01-09T03:02:14.058Z,4.30
2023-01-09T03:03:29.914Z,4.30
2023-01-09T03:04:47.008Z,4.40
2023-01-09T03:06:00.480Z,4.40
2023-01-09T03:07:15.296Z,4.40
2023-01-09T03:08:24.331Z,4.40
2023-01-09T03:09:32.155Z,4.40
2023-01-09T03:10:42.049Z,4.40
2023-01-09T03:11:53.275Z,4.30
2023-01-09T03:13:04.914Z,4.50
2023-01-09T03:14:14.131Z,4.40
2023-01-09T03:15:23.575Z,4.50
2023-01-09T03:16:34.034Z,4.40
2023-01-09T03:17:42.161Z,4.40
2023-01-09T03:18:51.111Z,4.40
2023-01-09T03:19:58.145Z,4.40
2023-01-09T03:21:01.076Z,4.50
2023-01-09T03:22:07.032Z,4.50
2023-01-09T03:23:10.287Z,4.50
2023-01-09T03:24:17.018Z,4.50
2023-01-09T03:25:23.462Z,4.50
2023-01-09T03:26:29.337Z,4.50
2023-01-09T03:27:33.109Z,4.50
2023-01-09T03:28:39.939Z,4.50
2023-01-09T03:29:42.827Z,4.50
2023-01-09T03:31:08.342Z,4.50
2023-01-09T03:32:12.867Z,4.50
2023-01-09T03:33:19.571Z,4.50
2023-01-09T03:34:22.192Z,4.50
2023-01-09T03:35:27.533Z,4.60
2023-01-09T03:36:30.033Z,4.50
2023-01-09T03:37:37.302Z,4.60
2023-01-09T03:38:42.382Z,4.50
2023-01-09T03:39:48.039Z,4.60
2023-01-09T03:40:52.033Z,4.50
2023-01-09T03:41:56.072Z,4.50
2023-01-09T03:42:59.623Z,4.60
2023-01-09T03:44:02.274Z,4.50
2023-01-09T03:45:07.653Z,4.60
2023-01-09T03:46:10.231Z,4.60
2023-01-09T03:47:15.749Z,4.60
2023-01-09T03:48:18.620Z,4.50
2023-01-09T03:49:23.284Z,4.50
2023-01-09T03:50:25.931Z,4.60
2023-01-09T03:51:29.910Z,4.50
2023-01-09T03:52:36.692Z,4.50
2023-01-09T03:53:40.865Z,4.50
2023-01-09T03:54:43.473Z,4.50
2023-01-09T03:55:48.566Z,4.50
2023-01-09T03:56:53.248Z,4.50
2023-01-09T03:57:57.070Z,4.50
2023-01-09T03:58:59.686Z,4.60
2023-01-09T04:00:03.445Z,4.50
2023-01-09T04:01:14.649Z,4.50
2023-01-09T04:02:21.778Z,4.50
2023-01-09T04:03:24.598Z,4.50
2023-01-09T04:04:28.656Z,4.50
2023-01-09T04:05:31.495Z,4.50
2023-01-09T04:06:35.571Z,4.50
2023-01-09T04:07:38.395Z,4.50
2023-01-09T04:08:43.225Z,4.50
2023-01-09T04:09:45.928Z,4.40
2023-01-09T04:10:51.571Z,4.40
2023-01-09T04:11:56.804Z,4.40
2023-01-09T04:13:00.680Z,4.40
2023-01-09T04:14:03.381Z,4.40
2023-01-09T04:15:08.618Z,4.40
2023-01-09T04:16:11.413Z,4.40
2023-01-09T04:17:16.719Z,4.40
2023-01-09T04:18:22.750Z,4.40
2023-01-09T04:19:25.887Z,4.40
2023-01-09T04:20:29.936Z,4.40
2023-01-09T04:21:32.892Z,4.40
2023-01-09T04:22:36.834Z,4.30
2023-01-09T04:23:39.586Z,4.30
2023-01-09T04:24:43.699Z,4.40
2023-01-09T04:25:47.751Z,4.30
2023-01-09T04:26:53.958Z,4.40
2023-01-09T04:27:57.892Z,4.40
2023-01-09T04:29:01.843Z,4.40
2023-01-09T04:30:05.232Z,4.30
2023-01-09T04:31:08.957Z,4.30
2023-01-09T04:32:11.708Z,4.30
2023-01-09T04:33:15.722Z,4.30
2023-01-09T04:34:25.535Z,4.20
2023-01-09T04:35:29.214Z,4.20
2023-01-09T04:36:34.636Z,4.30
2023-01-09T04:37:39.807Z,4.30
2023-01-09T04:38:43.571Z,4.30
2023-01-09T04:39:46.212Z,4.30
2023-01-09T04:40:52.894Z,4.30
2023-01-09T04:41:55.831Z,4.30
2023-01-09T04:42:59.552Z,4.30
2023-01-09T04:44:02.230Z,4.30
2023-01-09T04:45:07.909Z,4.30
2023-01-09T04:46:10.493Z,4.40
2023-01-09T04:47:14.694Z,4.40
2023-01-09T04:48:17.858Z,4.30
2023-01-09T04:49:23.811Z,4.40
2023-01-09T04:50:26.409Z,4.40
2023-01-09T04:51:30.209Z,4.50
2023-01-09T04:52:33.285Z,4.40
2023-01-09T04:53:37.118Z,4.40
2023-01-09T04:54:39.901Z,4.40
2023-01-09T04:55:43.686Z,4.50
2023-01-09T04:56:46.861Z,4.50
2023-01-09T04:57:50.839Z,4.50
2023-01-09T04:58:53.790Z,4.40
2023-01-09T04:59:57.371Z,4.40
2023-01-09T05:01:00.067Z,4.40
2023-01-09T05:02:05.062Z,4.50
2023-01-09T05:03:07.955Z,4.50
2023-01-09T05:04:13.216Z,4.50
2023-01-09T05:05:18.863Z,4.50
2023-01-09T05:06:22.253Z,4.50
2023-01-09T05:07:26.060Z,4.50
2023-01-09T05:08:29.870Z,4.50
2023-01-09T05:09:36.214Z,4.50
2023-01-09T05:10:38.659Z,4.60
2023-01-09T05:11:42.802Z,4.60
2023-01-09T05:12:46.688Z,4.60
2023-01-09T05:13:49.464Z,4.60
2023-01-09T05:14:53.207Z,4.70
2023-01-09T05:15:55.795Z,4.70
2023-01-09T05:16:59.461Z,4.60
2023-01-09T05:18:02.189Z,4.60
2023-01-09T05:19:06.754Z,4.60
2023-01-09T05:20:10.566Z,4.70
2023-01-09T05:21:15.463Z,4.60
2023-01-09T05:22:17.969Z,4.60
2023-01-09T05:23:21.836Z,4.70
2023-01-09T05:24:26.271Z,4.70
2023-01-09T05:25:31.103Z,4.70
2023-01-09T05:26:34.931Z,4.70
2023-01-09T05:27:44.111Z,4.80
2023-01-09T05:28:46.592Z,4.70
2023-01-09T05:29:50.681Z,4.70
2023-01-09T05:30:53.616Z,4.70
2023-01-09T05:31:57.318Z,4.70
2023-01-09T05:33:00.049Z,4.70
2023-01-09T05:34:03.719Z,4.70
2023-01-09T05:35:07.722Z,4.70
2023-01-09T05:36:11.737Z,4.70
2023-01-09T05:37:19.288Z,4.70
2023-01-09T05:38:26.269Z,4.70
2023-01-09T05:39:29.157Z,4.70
2023-01-09T05:40:40.006Z,4.70
2023-01-09T05:41:43.070Z,4.70
2023-01-09T05:42:50.089Z,4.80
2023-01-09T05:43:53.027Z,4.80
2023-01-09T05:44:56.940Z,4.80
2023-01-09T05:45:59.834Z,4.80
2023-01-09T05:47:03.789Z,4.80
2023-01-09T05:48:07.660Z,4.80
2023-01-09T05:49:11.707Z,4.70
2023-01-09T05:50:15.820Z,4.60
2023-01-09T05:51:19.930Z,4.70
2023-01-09T05:52:24.037Z,4.70
2023-01-09T05:53:27.650Z,4.60
2023-01-09T05:54:30.283Z,4.60
2023-01-09T05:55:34.566Z,4.60
2023-01-09T05:56:37.669Z,4.60
2023-01-09T05:57:44.502Z,4.70
2023-01-09T05:58:47.154Z,4.70
2023-01-09T05:59:53.129Z,4.80
2023-01-09T06:00:56.105Z,4.80
2023-01-09T06:02:00.652Z,4.80
2023-01-09T06:03:05.516Z,4.90
2023-01-09T06:04:11.396Z,4.90
2023-01-09T06:05:14.261Z,4.90
2023-01-09T06:06:20.386Z,4.90
2023-01-09T06:07:30.866Z,4.90
2023-01-09T06:08:35.165Z,4.80
2023-01-09T06:09:38.676Z,4.90
2023-01-09T06:10:43.176Z,4.80
2023-01-09T06:11:46.915Z,4.80
2023-01-09T06:12:51.794Z,4.80
2023-01-09T06:13:57.407Z,5.00
2023-01-09T06:14:59.938Z,4.80
2023-01-09T06:16:03.656Z,4.80
2023-01-09T06:17:10.817Z,4.70
2023-01-09T06:18:19.127Z,4.70
2023-01-09T06:19:25.756Z,4.80
2023-01-09T06:20:28.348Z,4.70
2023-01-09T06:21:32.282Z,4.70
2023-01-09T06:22:36.721Z,4.70
2023-01-09T06:23:40.715Z,4.70
2023-01-09T06:24:43.468Z,4.70
2023-01-09T06:25:47.325Z,4.70
2023-01-09T06:26:49.983Z,4.80
2023-01-09T06:27:53.940Z,4.80
2023-01-09T06:28:57.160Z,4.80
2023-01-09T06:30:01.386Z,4.80
2023-01-09T06:31:04.347Z,4.80
2023-01-09T06:32:08.131Z,4.80
2023-01-09T06:33:14.185Z,4.80
2023-01-09T06:34:21.029Z,4.80
2023-01-09T06:35:24.012Z,4.80
2023-01-09T06:36:27.803Z,4.80
2023-01-09T06:37:30.965Z,4.80
2023-01-09T06:38:39.883Z,4.80
2023-01-09T06:39:43.148Z,4.80
2023-01-09T06:40:47.431Z,4.80
2023-01-09T06:41:50.393Z,4.80
2023-01-09T06:42:54.217Z,4.80
2023-01-09T06:43:57.226Z,4.90
2023-01-09T06:45:01.208Z,4.80
2023-01-09T06:46:05.819Z,4.80
2023-01-09T06:47:08.905Z,4.80
2023-01-09T06:48:13.829Z,5.00
2023-01-09T06:49:18.126Z,4.80
2023-01-09T06:50:25.032Z,4.80
2023-01-09T06:51:27.947Z,4.80
2023-01-09T06:52:31.643Z,4.80
2023-01-09T06:53:36.579Z,4.70
2023-01-09T06:54:40.907Z,4.70
2023-01-09T06:55:45.072Z,4.70
2023-01-09T06:56:48.956Z,4.70
2023-01-09T06:57:51.844Z,4.70
2023-01-09T06:58:59.008Z,4.70
2023-01-09T07:00:07.195Z,4.70
2023-01-09T07:01:10.995Z,4.70
2023-01-09T07:02:20.536Z,4.70
2023-01-09T07:03:23.792Z,4.70
2023-01-09T07:04:28.295Z,4.60
2023-01-09T07:05:32.167Z,4.70
2023-01-09T07:06:36.654Z,4.60
2023-01-09T07:07:40.115Z,4.60
2023-01-09T07:08:43.818Z,4.70
2023-01-09T07:09:47.758Z,4.60
2023-01-09T07:10:52.074Z,4.70
2023-01-09T07:11:54.647Z,4.70
2023-01-09T07:12:58.467Z,4.70
2023-01-09T07:14:02.155Z,4.80
2023-01-09T07:15:06.728Z,4.80
2023-01-09T07:16:14.616Z,4.80
2023-01-09T07:17:18.424Z,4.80
2023-01-09T07:18:22.325Z,4.80
2023-01-09T07:19:25.385Z,4.80
2023-01-09T07:20:29.198Z,4.80
2023-01-09T07:21:32.842Z,4.80
2023-01-09T07:22:36.994Z,4.80
2023-01-09T07:23:39.526Z,4.80
2023-01-09T07:24:44.482Z,4.80
2023-01-09T07:25:51.897Z,4.80
2023-01-09T07:26:55.642Z,4.80
2023-01-09T07:27:58.211Z,4.80
2023-01-09T07:29:01.862Z,4.90
2023-01-09T07:30:05.859Z,4.90
2023-01-09T07:31:09.714Z,4.80
2023-01-09T07:32:12.746Z,4.90
2023-01-09T07:33:16.861Z,4.90
2023-01-09T07:34:20.899Z,4.90
2023-01-09T07:35:29.055Z,4.90
2023-01-09T07:36:31.786Z,5.00
2023-01-09T07:37:37.721Z,5.00
2023-01-09T07:38:41.359Z,5.00
2023-01-09T07:39:47.112Z,5.00
2023-01-09T07:40:52.785Z,4.90
2023-01-09T07:41:55.455Z,5.00
2023-01-09T07:42:59.605Z,5.00
2023-01-09T07:44:02.361Z,5.00
2023-01-09T07:45:07.808Z,5.00
2023-01-09T07:46:12.977Z,5.00
2023-01-09T07:47:15.708Z,5.00
2023-01-09T07:48:19.985Z,5.00
2023-01-09T07:49:26.039Z,5.10
2023-01-09T07:50:33.202Z,5.10
2023-01-09T07:51:36.871Z,5.10
2023-01-09T07:52:41.538Z,5.10
2023-01-09T07:53:45.235Z,5.10
2023-01-09T07:54:49.047Z,5.20
2023-01-09T07:55:54.150Z,5.20
2023-01-09T07:56:58.064Z,5.20
2023-01-09T07:58:04.488Z,5.30
2023-01-09T07:59:07.644Z,5.20
2023-01-09T08:00:13.522Z,5.20
2023-01-09T08:01:16.430Z,5.20
2023-01-09T08:02:20.852Z,5.20
2023-01-09T08:03:25.258Z,5.20
2023-01-09T08:04:29.028Z,5.30
2023-01-09T08:05:33.053Z,5.10
2023-01-09T08:06:35.653Z,5.10
2023-01-09T08:07:40.955Z,5.10
2023-01-09T08:08:44.845Z,5.20
2023-01-09T08:09:47.576Z,5.20
2023-01-09T08:10:51.497Z,5.20
2023-01-09T08:11:59.092Z,5.20
2023-01-09T08:13:05.562Z,5.20
2023-01-09T08:14:09.065Z,5.20
2023-01-09T08:15:16.393Z,5.10
2023-01-09T08:16:20.177Z,5.10
2023-01-09T08:17:26.463Z,5.10
2023-01-09T08:18:30.999Z,5.20
2023-01-09T08:19:35.589Z,5.20
2023-01-09T08:20:38.099Z,5.20
2023-01-09T08:21:42.739Z,5.30
2023-01-09T08:22:50.724Z,5.30
2023-01-09T08:23:56.480Z,5.30
2023-01-09T08:25:00.878Z,5.30
2023-01-09T08:26:04.511Z,5.30
2023-01-09T08:27:12.775Z,5.30
2023-01-09T08:28:17.291Z,5.30
2023-01-09T08:29:20.965Z,5.20
2023-01-09T08:30:27.449Z,5.20
2023-01-09T08:31:31.808Z,5.20
2023-01-09T08:32:35.632Z,5.20
2023-01-09T08:33:42.192Z,5.20
2023-01-09T08:34:48.072Z,5.20
2023-01-09T08:35:51.776Z,5.20
2023-01-09T08:36:54.550Z,5.20
2023-01-09T08:38:00.791Z,5.20
2023-01-09T08:39:03.445Z,5.30
2023-01-09T08:40:08.078Z,5.30
2023-01-09T08:41:29.382Z,5.30
2023-01-09T08:42:52.427Z,5.40
2023-01-09T08:44:13.079Z,5.40
2023-01-09T08:45:39.550Z,5.40
2023-01-09T08:47:01.676Z,5.50
2023-01-09T08:48:06.209Z,5.50
2023-01-09T08:49:09.935Z,5.50
2023-01-09T08:50:13.974Z,5.60
2023-01-09T08:51:20.835Z,5.60
2023-01-09T08:52:28.533Z,5.50
2023-01-09T08:53:32.752Z,5.40
2023-01-09T08:54:37.030Z,5.40
2023-01-09T08:55:43.411Z,5.40
2023-01-09T08:56:46.190Z,5.50
2023-01-09T08:57:51.704Z,5.50
2023-01-09T08:58:54.361Z,5.60
2023-01-09T08:59:58.159Z,5.50
2023-01-09T09:01:01.770Z,5.40
2023-01-09T09:02:08.804Z,5.40
2023-01-09T09:03:11.955Z,5.40
2023-01-09T09:04:16.398Z,5.40
2023-01-09T09:05:20.808Z,5.40
2023-01-09T09:06:27.480Z,5.40
2023-01-09T09:07:30.152Z,5.50
2023-01-09T09:08:36.797Z,5.60
2023-01-09T09:09:39.915Z,5.40
2023-01-09T09:10:43.887Z,5.50
2023-01-09T09:11:47.741Z,5.40
2023-01-09T09:12:57.979Z,5.40
2023-01-09T09:14:02.014Z,5.50
2023-01-09T09:15:13.759Z,5.50
2023-01-09T09:16:17.887Z,5.40
2023-01-09T09:17:24.726Z,5.40
2023-01-09T09:18:30.768Z,5.40
2023-01-09T09:19:39.814Z,5.40
2023-01-09T09:20:43.796Z,5.30
2023-01-09T09:21:46.309Z,5.30
2023-01-09T09:22:54.249Z,5.30
2023-01-09T09:23:57.985Z,5.30
2023-01-09T09:25:05.136Z,5.30
2023-01-09T09:26:09.199Z,5.40
2023-01-09T09:27:12.984Z,5.40
2023-01-09T09:28:17.078Z,5.50
2023-01-09T09:29:20.779Z,5.50
2023-01-09T09:30:26.015Z,5.50
2023-01-09T09:31:31.640Z,5.50
2023-01-09T09:32:35.472Z,5.60
2023-01-09T09:33:41.509Z,5.60
2023-01-09T09:34:44.004Z,5.60
2023-01-09T09:35:47.645Z,5.60
2023-01-09T09:36:50.606Z,5.60
2023-01-09T09:37:55.555Z,5.60
2023-01-09T09:39:03.173Z,5.60
2023-01-09T09:40:17.894Z,5.60
2023-01-09T09:42:11.059Z,5.60
2023-01-09T09:43:55.849Z,5.60
2023-01-09T09:45:21.124Z,5.50
2023-01-09T09:46:38.129Z,5.60
2023-01-09T09:47:52.642Z,5.70
2023-01-09T09:49:01.111Z,5.60
2023-01-09T09:50:20.264Z,5.60
2023-01-09T09:52:03.508Z,5.50
2023-01-09T09:53:14.852Z,5.60
2023-01-09T09:54:25.344Z,5.60
2023-01-09T09:55:34.605Z,5.60
2023-01-09T09:56:50.536Z,5.60
2023-01-09T09:58:00.602Z,5.70
2023-01-09T09:59:15.583Z,5.70
2023-01-09T10:00:24.683Z,5.70
2023-01-09T10:01:39.500Z,5.70
2023-01-09T10:02:51.846Z,5.80
2023-01-09T10:04:04.301Z,5.70
2023-01-09T10:05:18.331Z,5.70
2023-01-09T10:06:30.657Z,5.70
2023-01-09T10:07:42.210Z,5.80
2023-01-09T10:08:56.288Z,5.70
2023-01-09T10:10:06.327Z,5.70
2023-01-09T10:11:18.619Z,5.70
2023-01-09T10:12:30.708Z,5.70
2023-01-09T10:13:52.709Z,5.70
2023-01-09T10:15:02.921Z,5.80
2023-01-09T10:16:19.014Z,5.80
2023-01-09T10:17:48.426Z,5.70
2023-01-09T10:19:05.904Z,5.80
2023-01-09T10:20:41.013Z,5.70
2023-01-09T10:21:56.962Z,5.80
2023-01-09T10:23:20.657Z,5.80
2023-01-09T10:24:47.633Z,5.80
2023-01-09T10:25:57.906Z,5.80
2023-01-09T10:27:21.602Z,5.70
2023-01-09T10:28:49.902Z,5.70
2023-01-09T10:30:11.693Z,5.80
2023-01-09T10:31:34.072Z,5.90
2023-01-09T10:33:02.775Z,5.80
2023-01-09T10:34:22.368Z,5.80
2023-01-09T10:35:57.081Z,5.80
2023-01-09T10:37:11.681Z,5.80
2023-01-09T10:38:24.721Z,5.80
2023-01-09T10:39:37.158Z,5.80
2023-01-09T10:40:46.478Z,5.80
2023-01-09T10:41:59.768Z,5.90
2023-01-09T10:43:10.856Z,5.80
2023-01-09T10:44:22.425Z,5.90
2023-01-09T10:45:37.167Z,5.90
2023-01-09T10:46:50.386Z,5.90
2023-01-09T10:48:01.582Z,6.00
2023-01-09T10:49:15.059Z,6.00
2023-01-09T10:50:23.745Z,6.00
2023-01-09T10:51:35.599Z,6.00
2023-01-09T10:52:43.909Z,6.00
2023-01-09T10:53:53.007Z,6.10
2023-01-09T10:55:02.105Z,6.10
2023-01-09T10:56:19.167Z,6.10
2023-01-09T10:57:41.909Z,6.10
2023-01-09T10:58:45.903Z,6.10
2023-01-09T10:59:48.881Z,6.10
2023-01-09T11:00:59.635Z,6.10
2023-01-09T11:02:03.957Z,6.10
2023-01-09T11:03:13.470Z,6.10
2023-01-09T11:04:26.117Z,6.10
2023-01-09T11:05:32.936Z,6.20
2023-01-09T11:06:49.076Z,6.10
2023-01-09T11:07:58.619Z,6.20
2023-01-09T11:09:04.787Z,6.20
2023-01-09T11:10:12.100Z,6.20
2023-01-09T11:11:34.101Z,6.20
2023-01-09T11:12:41.070Z,6.20
2023-01-09T11:13:48.828Z,6.30
2023-01-09T11:14:52.958Z,6.20
2023-01-09T11:16:08.015Z,6.20
2023-01-09T11:17:22.280Z,6.20
2023-01-09T11:18:27.009Z,6.20
2023-01-09T11:19:33.710Z,6.10
2023-01-09T11:20:37.016Z,6.10
2023-01-09T11:21:42.317Z,6.20
2023-01-09T11:22:48.259Z,6.20
2023-01-09T11:23:51.801Z,6.30
2023-01-09T11:25:05.741Z,6.20
2023-01-09T11:26:28.184Z,6.20
2023-01-09T11:27:30.820Z,6.20
2023-01-09T11:28:36.844Z,6.20
2023-01-09T11:29:43.567Z,6.20
2023-01-09T11:30:57.889Z,6.20
2023-01-09T11:32:05.734Z,6.20
2023-01-09T11:33:22.202Z,6.20
2023-01-09T11:34:28.911Z,6.20
2023-01-09T11:35:35.028Z,6.20
2023-01-09T11:36:41.548Z,6.10
2023-01-09T11:37:47.800Z,6.10
2023-01-09T11:38:57.162Z,6.10
2023-01-09T11:40:01.788Z,6.10
2023-01-09T11:41:07.990Z,6.10
2023-01-09T11:42:46.196Z,6.10
2023-01-09T11:43:57.115Z,6.10
2023-01-09T11:45:01.737Z,6.00
2023-01-09T11:46:08.205Z,6.00
2023-01-09T11:47:37.246Z,6.00
2023-01-09T11:48:54.151Z,6.00
2023-01-09T11:50:18.210Z,6.00
2023-01-09T11:51:24.666Z,5.90
2023-01-09T11:52:29.527Z,6.10
2023-01-09T11:53:52.124Z,5.90
2023-01-09T11:55:01.101Z,5.90
2023-01-09T11:56:06.277Z,5.90
2023-01-09T11:57:14.108Z,5.90
2023-01-09T11:58:21.231Z,5.90
2023-01-09T11:59:32.311Z,5.90
2023-01-09T12:00:50.394Z,5.90
2023-01-09T12:02:11.844Z,5.90
2023-01-09T12:03:43.070Z,5.90
2023-01-09T12:04:54.361Z,5.90
2023-01-09T12:06:13.848Z,5.90
2023-01-09T12:07:42.259Z,5.90
2023-01-09T12:08:57.409Z,5.90
2023-01-09T12:10:16.167Z,5.90
2023-01-09T12:11:31.102Z,5.90
2023-01-09T12:12:46.971Z,6.00
2023-01-09T12:14:26.511Z,6.00
2023-01-09T12:15:40.067Z,5.90
2023-01-09T12:17:06.857Z,6.10
2023-01-09T12:18:28.682Z,6.20
2023-01-09T12:19:57.121Z,6.30
2023-01-09T12:21:30.629Z,6.30
2023-01-09T12:22:47.467Z,6.40
2023-01-09T12:24:18.851Z,6.40
2023-01-09T12:25:36.207Z,6.40
2023-01-09T12:26:52.989Z,6.50
2023-01-09T12:28:24.658Z,6.40
2023-01-09T12:30:03.804Z,6.40
2023-01-09T12:31:28.923Z,6.40
2023-01-09T12:32:49.116Z,6.30
2023-01-09T12:34:07.255Z,6.30
2023-01-09T12:35:26.238Z,6.30
2023-01-09T12:36:45.804Z,6.40
2023-01-09T12:38:07.771Z,6.30
2023-01-09T12:39:33.507Z,6.30
2023-01-09T12:40:55.973Z,6.30
2023-01-09T12:42:34.522Z,6.20
2023-01-09T12:43:52.320Z,6.30
2023-01-09T12:45:04.817Z,6.30
2023-01-09T12:46:20.122Z,6.30
2023-01-09T12:47:45.584Z,6.30
2023-01-09T12:49:18.266Z,6.30
2023-01-09T12:50:53.543Z,6.30
2023-01-09T12:52:06.124Z,6.30
2023-01-09T12:53:22.922Z,6.30
2023-01-09T12:54:36.230Z,6.30
2023-01-09T12:55:46.128Z,6.30
2023-01-09T12:56:56.232Z,6.30
2023-01-09T12:58:06.593Z,6.30
2023-01-09T12:59:30.824Z,6.30
2023-01-09T13:00:43.521Z,6.30
2023-01-09T13:01:53.722Z,6.20
2023-01-09T13:03:12.642Z,6.30
2023-01-09T13:04:25.837Z,6.30
2023-01-09T13:05:37.101Z,6.30
2023-01-09T13:06:51.096Z,6.40
2023-01-09T13:08:01.927Z,6.40
2023-01-09T13:09:22.077Z,6.50
2023-01-09T13:10:33.442Z,6.50
2023-01-09T13:11:48.883Z,6.50
2023-01-09T13:12:55.098Z,6.40
2023-01-09T13:14:06.099Z,6.50
2023-01-09T13:15:33.171Z,6.40
2023-01-09T13:16:42.575Z,6.40
2023-01-09T13:17:53.082Z,6.40
2023-01-09T13:19:05.091Z,6.40
2023-01-09T13:20:22.647Z,6.40
2023-01-09T13:21:31.589Z,6.40
2023-01-09T13:22:36.240Z,6.40
2023-01-09T13:23:50.553Z,6.40
2023-01-09T13:25:20.997Z,6.40
2023-01-09T13:26:32.960Z,6.40
2023-01-09T13:27:41.096Z,6.40
2023-01-09T13:28:50.236Z,6.40
2023-01-09T13:30:04.591Z,6.30
2023-01-09T13:31:50.135Z,6.40
2023-01-09T13:33:09.433Z,6.40
2023-01-09T13:34:22.381Z,6.40
2023-01-09T13:35:29.895Z,6.40
2023-01-09T13:36:39.675Z,6.50
2023-01-09T13:37:51.073Z,6.50
2023-01-09T13:38:57.958Z,6.50
2023-01-09T13:40:05.107Z,6.50
2023-01-09T13:41:37.130Z,6.50
2023-01-09T13:42:46.578Z,6.50
2023-01-09T13:43:59.640Z,6.50
2023-01-09T13:45:21.044Z,6.50
2023-01-09T13:46:35.018Z,6.70
2023-01-09T13:47:39.590Z,6.50
2023-01-09T13:48:42.907Z,6.60
2023-01-09T13:50:23.742Z,6.50
2023-01-09T13:52:00.466Z,6.50
2023-01-09T13:53:46.935Z,6.50
2023-01-09T13:55:36.467Z,6.50
2023-01-09T13:57:26.150Z,6.60
2023-01-09T13:58:32.152Z,6.60
2023-01-09T13:59:36.671Z,6.60
2023-01-09T14:01:00.115Z,6.60
2023-01-09T14:02:04.403Z,6.60
2023-01-09T14:03:26.104Z,6.60
2023-01-09T14:04:46.582Z,6.60
2023-01-09T14:06:13.809Z,6.60
2023-01-09T14:07:24.004Z,6.70
2023-01-09T14:08:31.803Z,6.70
2023-01-09T14:09:39.448Z,6.70
2023-01-09T14:10:51.062Z,6.80
2023-01-09T14:12:08.783Z,6.80
2023-01-09T14:13:21.961Z,6.80
2023-01-09T14:14:33.272Z,6.70
2023-01-09T14:15:44.907Z,6.80
2023-01-09T14:16:48.921Z,6.70
2023-01-09T14:18:00.869Z,6.80
2023-01-09T14:19:18.776Z,6.70
2023-01-09T14:20:32.396Z,6.80
2023-01-09T14:21:50.380Z,6.80
2023-01-09T14:24:32.269Z,6.90
2023-01-09T14:25:44.630Z,6.90
2023-01-09T14:26:50.001Z,7.30
2023-01-09T14:28:20.693Z,7.00
2023-01-09T14:29:48.977Z,7.00
2023-01-09T14:31:12.507Z,7.00
2023-01-09T14:32:39.161Z,7.00
2023-01-09T14:33:43.445Z,7.00
2023-01-09T14:34:50.670Z,7.00
2023-01-09T14:36:05.438Z,7.00
2023-01-09T14:37:15.974Z,7.00
2023-01-09T14:38:30.504Z,7.00
2023-01-09T14:39:38.843Z,7.00
2023-01-09T14:40:52.259Z,7.00
2023-01-09T14:42:08.557Z,7.00
2023-01-09T14:43:24.207Z,7.00
2023-01-09T14:44:32.616Z,7.00
2023-01-09T14:45:40.683Z,7.00
2023-01-09T14:46:45.897Z,7.10
2023-01-09T14:47:59.511Z,7.20
2023-01-09T14:49:17.876Z,7.20
2023-01-09T14:50:34.144Z,7.20
2023-01-09T14:51:47.354Z,7.40
2023-01-09T14:52:59.655Z,7.20
2023-01-09T14:54:16.757Z,7.20
2023-01-09T14:55:29.340Z,7.20
2023-01-09T14:56:35.104Z,7.20
2023-01-09T14:57:38.034Z,7.20
2023-01-09T14:58:42.140Z,7.20
2023-01-09T14:59:57.693Z,7.20
2023-01-09T15:01:05.866Z,7.20
2023-01-09T15:02:15.228Z,7.20
2023-01-09T15:03:23.208Z,7.20
2023-01-09T15:04:38.512Z,7.20
2023-01-09T15:05:47.322Z,7.30
2023-01-09T15:06:52.295Z,6.80
2023-01-09T15:08:00.717Z,7.10
2023-01-09T15:09:09.897Z,7.10
2023-01-09T15:10:25.199Z,7.10
2023-01-09T15:11:32.557Z,7.10
2023-01-09T15:12:37.650Z,7.20
2023-01-09T15:13:50.044Z,7.20
2023-01-09T15:14:59.148Z,7.20
2023-01-09T15:16:07.661Z,7.20
2023-01-09T15:17:21.777Z,7.20
2023-01-09T15:18:30.425Z,7.20
2023-01-09T15:19:38.593Z,7.20
2023-01-09T15:20:43.438Z,7.20
2023-01-09T15:21:57.889Z,7.20
2023-01-09T15:23:04.389Z,6.80
2023-01-09T15:24:27.260Z,7.20
2023-01-09T15:25:38.572Z,7.20